createdAt,value
2023-05-24T00:03:19.390Z,97680.50
2023-05-24T00:06:28.373Z,97682.66
2023-05-24T00:09:35.091Z,97675.53
2023-05-24T00:12:41.197Z,97690.47
2023-05-24T00:15:50.176Z,97679.69
2023-05-24T00:18:56.229Z,97680.69
2023-05-24T00:22:08.515Z,97684.28
2023-05-24T00:25:14.475Z,97682.34
2023-05-24T00:28:21.561Z,97675.97
2023-05-24T00:31:27.459Z,97685.69
2023-05-24T00:34:34.230Z,97676.38
2023-05-24T00:37:45.489Z,97681.13
2023-05-24T00:40:52.478Z,97689.47
2023-05-24T00:43:59.699Z,97678.44
2023-05-24T00:47:13.716Z,97683.38
2023-05-24T00:50:21.030Z,97687.75
2023-05-24T00:53:31.028Z,97684.50
2023-05-24T00:56:37.899Z,97689.97
2023-05-24T00:59:46.246Z,97688.84
2023-05-24T01:02:52.960Z,97690.47
2023-05-24T01:06:01.881Z,97695.47
2023-05-24T01:09:28.987Z,97697.41
2023-05-24T01:12:54.223Z,97701.03
2023-05-24T01:16:11.490Z,97700.09
2023-05-24T01:19:54.473Z,97701.88
2023-05-24T01:23:34.829Z,97707.09
2023-05-24T01:27:08.530Z,97703.09
2023-05-24T01:30:32.031Z,97703.41
2023-05-24T01:33:52.949Z,97712.13
2023-05-24T01:37:14.199Z,97704.28
2023-05-24T01:40:36.446Z,97699.19
2023-05-24T01:44:13.502Z,97708.25
2023-05-24T01:47:40.761Z,97702.31
2023-05-24T01:50:55.943Z,97713.66
2023-05-24T01:54:09.825Z,97712.91
2023-05-24T01:57:17.955Z,97715.75
2023-05-24T02:00:29.861Z,97717.59
2023-05-24T02:03:38.312Z,97717.53
2023-05-24T02:06:45.079Z,97727.22
2023-05-24T02:09:51.076Z,97731.63
2023-05-24T02:12:59.759Z,97730.06
2023-05-24T02:16:11.155Z,97731.09
2023-05-24T02:19:18.199Z,97734.38
2023-05-24T02:22:24.388Z,97732.78
2023-05-24T02:25:32.488Z,97732.88
2023-05-24T02:28:38.520Z,97732.88
2023-05-24T02:31:51.018Z,97734.19
2023-05-24T02:34:59.518Z,97738.13
2023-05-24T02:38:07.013Z,97735.06
2023-05-24T02:41:18.172Z,97732.22
2023-05-24T02:44:25.000Z,97740.09
2023-05-24T02:47:33.786Z,97734.03
2023-05-24T02:50:54.711Z,97738.56
2023-05-24T02:54:17.977Z,97740.81
2023-05-24T02:57:39.403Z,97746.56
2023-05-24T03:01:00.307Z,97745.47
2023-05-24T03:04:25.504Z,97748.19
2023-05-24T03:07:48.974Z,97747.78
2023-05-24T03:11:12.658Z,97750.56
2023-05-24T03:14:35.591Z,97752.56
2023-05-24T03:17:57.385Z,97748.06
2023-05-24T03:21:21.756Z,97746.63
2023-05-24T03:24:42.678Z,97747.13
2023-05-24T03:28:09.502Z,97754.94
2023-05-24T03:31:30.590Z,97750.03
2023-05-24T03:34:51.943Z,97754.66
2023-05-24T03:38:04.054Z,97761.41
2023-05-24T03:41:23.111Z,97757.03
2023-05-24T03:44:31.028Z,97759.91
2023-05-24T03:47:38.641Z,97759.53
2023-05-24T03:50:45.847Z,97761.72
2023-05-24T03:53:54.391Z,97764.75
2023-05-24T03:57:02.070Z,97753.59
2023-05-24T04:00:13.001Z,97767.16
2023-05-24T04:03:41.084Z,97770.09
2023-05-24T04:07:02.070Z,97778.28
2023-05-24T04:10:13.226Z,97783.63
2023-05-24T04:13:19.419Z,97796.63
2023-05-24T04:16:30.006Z,97797.56
2023-05-24T04:19:36.210Z,97808.84
2023-05-24T04:22:43.804Z,97807.78
2023-05-24T04:25:54.301Z,97810.31
2023-05-24T04:29:08.482Z,97822.91
2023-05-24T04:32:15.190Z,97831.75
2023-05-24T04:35:25.976Z,97834.03
2023-05-24T04:38:36.355Z,97832.88
2023-05-24T04:41:46.008Z,97822.19
2023-05-24T04:44:52.508Z,97831.84
2023-05-24T04:47:59.473Z,97840.50
2023-05-24T04:51:06.044Z,97850.56
2023-05-24T04:54:13.271Z,97849.72
2023-05-24T04:57:22.728Z,97848.91
2023-05-24T05:00:30.513Z,97859.84
2023-05-24T05:03:51.741Z,97862.53
2023-05-24T05:06:58.571Z,97862.28
2023-05-24T05:10:29.515Z,97868.06
2023-05-24T05:13:59.132Z,97880.00
2023-05-24T05:17:05.034Z,97883.69
2023-05-24T05:20:12.663Z,97891.56
2023-05-24T05:23:19.883Z,97896.28
2023-05-24T05:26:27.278Z,97900.22
2023-05-24T05:29:35.871Z,97902.63
2023-05-24T05:32:43.217Z,97905.47
2023-05-24T05:35:49.335Z,97916.56
2023-05-24T05:39:12.510Z,97914.72
2023-05-24T05:42:33.366Z,97914.88
2023-05-24T05:45:42.837Z,97923.50
2023-05-24T05:48:48.769Z,97934.56
2023-05-24T05:51:56.066Z,97937.50
2023-05-24T05:55:02.437Z,97935.00
2023-05-24T05:58:09.173Z,97940.72
2023-05-24T06:01:19.229Z,97950.91
2023-05-24T06:04:40.223Z,97950.25
2023-05-24T06:07:47.774Z,97948.00
2023-05-24T06:10:53.798Z,97951.31
2023-05-24T06:14:00.591Z,97959.75
2023-05-24T06:17:09.710Z,97965.91
2023-05-24T06:20:17.400Z,97972.47
2023-05-24T06:23:23.776Z,97966.63
2023-05-24T06:26:30.694Z,97966.16
2023-05-24T06:29:36.594Z,97977.38
2023-05-24T06:32:45.965Z,97980.13
2023-05-24T06:35:52.038Z,97985.81
2023-05-24T06:38:59.067Z,97993.66
2023-05-24T06:42:05.650Z,97998.94
2023-05-24T06:45:16.675Z,97995.47
2023-05-24T06:48:43.105Z,97999.59
2023-05-24T06:52:04.217Z,98001.09
2023-05-24T06:55:11.982Z,98008.84
2023-05-24T06:58:18.031Z,98007.13
2023-05-24T07:01:25.383Z,98021.66
2023-05-24T07:04:34.036Z,98011.22
2023-05-24T07:07:41.912Z,98019.66
2023-05-24T07:10:48.080Z,98025.06
2023-05-24T07:13:54.892Z,98023.50
2023-05-24T07:17:01.078Z,98022.28
2023-05-24T07:20:14.201Z,98035.34
2023-05-24T07:23:20.459Z,98032.13
2023-05-24T07:26:27.324Z,98039.16
2023-05-24T07:29:35.277Z,98043.09
2023-05-24T07:32:43.402Z,98047.38
2023-05-24T07:35:54.153Z,98051.50
2023-05-24T07:39:20.778Z,98055.84
2023-05-24T07:42:26.893Z,98059.13
2023-05-24T07:45:34.207Z,98063.59
2023-05-24T07:48:40.212Z,98072.75
2023-05-24T07:51:49.821Z,98071.75
2023-05-24T07:54:56.168Z,98072.72
2023-05-24T07:58:02.869Z,98072.78
2023-05-24T08:01:09.217Z,98076.03
2023-05-24T08:04:28.585Z,98075.44
2023-05-24T08:07:37.176Z,98077.81
2023-05-24T08:10:43.882Z,98083.00
2023-05-24T08:13:50.166Z,98089.59
2023-05-24T08:16:56.928Z,98084.66
2023-05-24T08:20:17.289Z,98083.03
2023-05-24T08:23:32.208Z,98085.59
2023-05-24T08:26:38.440Z,98101.63
2023-05-24T08:29:45.220Z,98109.06
2023-05-24T08:32:51.453Z,98103.66
2023-05-24T08:36:04.553Z,98104.19
2023-05-24T08:39:24.103Z,98119.19
2023-05-24T08:42:34.110Z,98115.06
2023-05-24T08:45:42.799Z,98119.28
2023-05-24T08:48:55.789Z,98121.00
2023-05-24T08:52:08.585Z,98126.75
2023-05-24T08:55:33.062Z,98132.34
2023-05-24T08:58:42.046Z,98137.31
2023-05-24T09:01:57.595Z,98133.28
2023-05-24T09:05:17.300Z,98150.81
2023-05-24T09:08:25.539Z,98161.94
2023-05-24T09:11:39.491Z,98163.75
2023-05-24T09:14:51.756Z,98162.53
2023-05-24T09:17:57.961Z,98167.84
2023-05-24T09:21:04.599Z,98177.50
2023-05-24T09:24:14.433Z,98170.75
2023-05-24T09:27:25.169Z,98181.78
2023-05-24T09:30:31.167Z,98182.69
2023-05-24T09:33:44.120Z,98183.53
2023-05-24T09:36:51.803Z,98179.41
2023-05-24T09:39:59.096Z,98185.97
2023-05-24T09:43:13.234Z,98186.34
2023-05-24T09:46:28.607Z,98193.53
2023-05-24T09:49:42.398Z,98193.38
2023-05-24T09:52:49.795Z,98182.44
2023-05-24T09:55:58.715Z,98188.63
2023-05-24T09:59:14.345Z,98182.25
2023-05-24T10:02:22.186Z,98190.16
2023-05-24T10:05:30.436Z,98190.84
2023-05-24T10:08:39.386Z,98191.16
2023-05-24T10:11:47.462Z,98192.75
2023-05-24T10:15:06.864Z,98195.03
2023-05-24T10:18:15.079Z,98194.66
2023-05-24T10:21:24.996Z,98203.13
2023-05-24T10:24:42.110Z,98202.06
2023-05-24T10:27:51.880Z,98206.00
2023-05-24T10:31:22.363Z,98202.50
2023-05-24T10:34:31.149Z,98206.63
2023-05-24T10:37:39.479Z,98212.19
2023-05-24T10:40:46.725Z,98213.84
2023-05-24T10:44:08.759Z,98208.88
2023-05-24T10:47:35.887Z,98204.91
2023-05-24T10:50:46.038Z,98221.25
2023-05-24T10:53:53.718Z,98217.34
2023-05-24T10:57:15.896Z,98221.69
2023-05-24T11:00:35.637Z,98219.59
2023-05-24T11:04:12.436Z,98223.75
2023-05-24T11:07:21.933Z,98224.31
2023-05-24T11:10:36.109Z,98215.69
2023-05-24T11:13:44.643Z,98213.66
2023-05-24T11:16:54.929Z,98222.06
2023-05-24T11:20:06.403Z,98219.81
2023-05-24T11:23:21.761Z,98217.53
2023-05-24T11:26:29.350Z,98216.50
2023-05-24T11:29:38.293Z,98229.91
2023-05-24T11:32:44.823Z,98227.16
2023-05-24T11:35:58.313Z,98225.44
2023-05-24T11:39:07.690Z,98228.97
2023-05-24T11:42:15.038Z,98226.97
2023-05-24T11:45:22.960Z,98232.31
2023-05-24T11:48:33.069Z,98227.72
2023-05-24T11:51:41.715Z,98220.72
2023-05-24T11:54:48.625Z,98222.91
2023-05-24T11:58:02.294Z,98219.09
2023-05-24T12:01:36.706Z,98213.28
2023-05-24T12:04:42.997Z,98219.53
2023-05-24T12:08:12.356Z,98211.94
2023-05-24T12:11:18.910Z,98227.16
2023-05-24T12:14:31.542Z,98226.91
2023-05-24T12:17:37.743Z,98231.69
2023-05-24T12:20:45.915Z,98227.47
2023-05-24T12:23:55.127Z,98229.41
2023-05-24T12:27:07.047Z,98227.16
2023-05-24T12:30:20.414Z,98234.81
2023-05-24T12:33:27.848Z,98237.03
2023-05-24T12:36:34.890Z,98231.47
2023-05-24T12:39:45.011Z,98230.47
2023-05-24T12:43:01.431Z,98228.00
2023-05-24T12:46:46.153Z,98229.66
2023-05-24T12:49:55.068Z,98229.03
2023-05-24T12:53:08.672Z,98232.19
2023-05-24T12:56:20.652Z,98232.16
2023-05-24T12:59:28.962Z,98224.91
2023-05-24T13:02:36.945Z,98222.41
2023-05-24T13:05:45.003Z,98234.41
2023-05-24T13:08:51.254Z,98227.66
2023-05-24T13:12:07.701Z,98233.84
2023-05-24T13:15:28.879Z,98236.31
2023-05-24T13:18:37.702Z,98231.59
2023-05-24T13:21:44.013Z,98228.50
2023-05-24T13:24:50.926Z,98232.00
2023-05-24T13:28:00.344Z,98229.75
2023-05-24T13:31:08.843Z,98224.97
2023-05-24T13:34:18.020Z,98229.53
2023-05-24T13:37:31.792Z,98226.41
2023-05-24T13:40:40.822Z,98226.63
2023-05-24T13:43:51.395Z,98231.19
2023-05-24T13:46:57.621Z,98222.50
2023-05-24T13:50:08.174Z,98229.31
2023-05-24T13:53:17.625Z,98232.00
2023-05-24T13:56:26.316Z,98219.00
2023-05-24T13:59:34.986Z,98232.00
2023-05-24T14:02:43.613Z,98225.19
2023-05-24T14:05:49.697Z,98234.47
2023-05-24T14:08:57.148Z,98233.22
2023-05-24T14:12:09.721Z,98224.56
2023-05-24T14:15:24.452Z,98231.78
2023-05-24T14:18:30.657Z,98231.59
2023-05-24T14:21:37.758Z,98232.41
2023-05-24T14:24:45.478Z,98231.78
2023-05-24T14:27:52.333Z,98226.84
2023-05-24T14:31:03.978Z,98229.31
2023-05-24T14:34:11.983Z,98225.38
2023-05-24T14:37:20.611Z,98228.63
2023-05-24T14:40:27.611Z,98233.00
2023-05-24T14:43:33.624Z,98226.78
2023-05-24T14:46:44.380Z,98226.41
2023-05-24T14:49:50.571Z,98222.91
2023-05-24T14:52:57.495Z,98227.44
2023-05-24T14:56:05.494Z,98222.94
2023-05-24T14:59:17.710Z,98223.13
2023-05-24T15:02:26.484Z,98222.50
2023-05-24T15:05:37.296Z,98235.53
2023-05-24T15:08:43.588Z,98225.41
2023-05-24T15:11:51.662Z,98230.56
2023-05-24T15:14:58.286Z,98229.31
2023-05-24T15:18:08.464Z,98234.06
2023-05-24T15:21:14.655Z,98231.19
2023-05-24T15:24:22.032Z,98235.69
2023-05-24T15:27:27.998Z,98237.78
2023-05-24T15:30:34.854Z,98246.63
2023-05-24T15:33:43.441Z,98242.72
2023-05-24T15:36:50.341Z,98243.72
2023-05-24T15:39:58.717Z,98250.97
2023-05-24T15:43:09.149Z,98253.84
2023-05-24T15:46:15.139Z,98255.47
2023-05-24T15:49:26.257Z,98253.00
2023-05-24T15:52:32.147Z,98255.63
2023-05-24T15:55:39.423Z,98255.97
2023-05-24T15:58:54.126Z,98261.94
2023-05-24T16:06:56.290Z,98251.91
2023-05-24T16:10:03.257Z,98253.75
2023-05-24T16:13:13.008Z,98259.75
2023-05-24T16:16:25.105Z,98255.03
2023-05-24T16:19:31.298Z,98260.44
2023-05-24T16:22:40.847Z,98257.16
2023-05-24T16:25:49.637Z,98255.50
2023-05-24T16:28:56.546Z,98259.53
2023-05-24T16:32:08.323Z,98257.47
2023-05-24T16:35:15.457Z,98265.50
2023-05-24T16:38:29.092Z,98272.94
2023-05-24T16:41:37.950Z,98274.13
2023-05-24T16:44:44.023Z,98285.34
2023-05-24T16:47:51.373Z,98283.84
2023-05-24T16:50:58.150Z,98288.78
2023-05-24T16:54:09.542Z,98296.19
2023-05-24T16:57:15.692Z,98299.88
2023-05-24T17:00:25.082Z,98301.81
2023-05-24T17:03:32.477Z,98309.44
2023-05-24T17:06:39.512Z,98301.59
2023-05-24T17:09:50.497Z,98302.59
2023-05-24T17:12:57.462Z,98305.63
2023-05-24T17:16:03.757Z,98307.63
2023-05-24T17:19:15.074Z,98311.19
2023-05-24T17:22:21.760Z,98314.50
2023-05-24T17:25:39.836Z,98317.88
2023-05-24T17:28:53.557Z,98318.69
2023-05-24T17:32:03.253Z,98319.34
2023-05-24T17:35:10.146Z,98319.38
2023-05-24T17:38:17.041Z,98325.50
2023-05-24T17:41:26.915Z,98321.94
2023-05-24T17:44:34.453Z,98331.91
2023-05-24T17:47:40.783Z,98320.78
2023-05-24T17:50:48.403Z,98332.72
2023-05-24T17:53:54.507Z,98328.81
2023-05-24T17:57:04.669Z,98348.38
2023-05-24T18:00:12.863Z,98346.34
2023-05-24T18:03:26.578Z,98342.22
2023-05-24T18:06:33.832Z,98365.72
2023-05-24T18:09:40.629Z,98355.28
2023-05-24T18:12:49.382Z,98357.78
2023-05-24T18:15:57.226Z,98357.94
2023-05-24T18:19:07.647Z,98360.47
2023-05-24T18:22:21.549Z,98355.28
2023-05-24T18:25:34.016Z,98365.41
2023-05-24T18:28:45.190Z,98366.09
2023-05-24T18:31:52.087Z,98375.63
2023-05-24T18:35:00.434Z,98378.22
2023-05-24T18:38:23.224Z,98379.69
2023-05-24T18:41:33.166Z,98376.47
2023-05-24T18:44:41.777Z,98386.19
2023-05-24T18:47:48.664Z,98392.84
2023-05-24T18:50:55.103Z,98386.56
2023-05-24T18:54:02.125Z,98387.19
2023-05-24T18:57:27.830Z,98392.53
2023-05-24T19:00:42.557Z,98389.66
2023-05-24T19:03:50.735Z,98396.00
2023-05-24T19:06:57.857Z,98401.81
2023-05-24T19:10:10.391Z,98409.13
2023-05-24T19:13:17.977Z,98408.88
2023-05-24T19:16:29.431Z,98416.78
2023-05-24T19:19:39.572Z,98417.41
2023-05-24T19:22:45.740Z,98419.09
2023-05-24T19:26:10.878Z,98428.13
2023-05-24T19:29:37.693Z,98439.66
2023-05-24T19:32:47.707Z,98437.44
2023-05-24T19:35:53.700Z,98433.28
2023-05-24T19:39:00.652Z,98433.03
2023-05-24T19:42:07.211Z,98432.41
2023-05-24T19:45:15.491Z,98434.34
2023-05-24T19:48:26.583Z,98434.44
2023-05-24T19:51:33.505Z,98438.00
2023-05-24T19:54:39.791Z,98434.28
2023-05-24T19:57:46.850Z,98432.47
2023-05-24T20:00:53.521Z,98433.88
2023-05-24T20:04:09.934Z,98435.50
2023-05-24T20:07:25.725Z,98430.94
2023-05-24T20:10:36.038Z,98426.38
2023-05-24T20:13:42.516Z,98423.31
2023-05-24T20:16:49.362Z,98418.09
2023-05-24T20:19:58.048Z,98424.13
2023-05-24T20:23:05.236Z,98403.28
2023-05-24T20:26:11.332Z,98415.03
2023-05-24T20:29:18.309Z,98410.34
2023-05-24T20:32:24.585Z,98407.28
2023-05-24T20:35:40.922Z,98410.31
2023-05-24T20:38:58.791Z,98414.00
2023-05-24T20:42:05.678Z,98415.59
2023-05-24T20:45:13.650Z,98417.50
2023-05-24T20:48:20.565Z,98415.56
2023-05-24T20:51:36.840Z,98414.59
2023-05-24T20:54:43.899Z,98416.81
2023-05-24T20:57:50.412Z,98427.00
2023-05-24T21:00:57.480Z,98428.38
2023-05-24T21:04:03.983Z,98418.69
2023-05-24T21:07:13.618Z,98424.44
2023-05-24T21:10:21.829Z,98422.16
2023-05-24T21:13:30.614Z,98434.28
2023-05-24T21:16:36.837Z,98431.59
2023-05-24T21:19:44.258Z,98424.56
2023-05-24T21:22:59.509Z,98437.13
2023-05-24T21:26:06.536Z,98438.59
2023-05-24T21:29:14.985Z,98436.56
2023-05-24T21:32:34.947Z,98442.06
2023-05-24T21:35:41.526Z,98439.38
2023-05-24T21:38:51.502Z,98434.22
2023-05-24T21:41:58.151Z,98437.50
2023-05-24T21:45:04.970Z,98437.97
2023-05-24T21:48:11.934Z,98442.44
2023-05-24T21:51:18.777Z,98440.31
2023-05-24T21:54:29.488Z,98438.06
2023-05-24T21:57:36.291Z,98448.03
2023-05-24T22:00:42.284Z,98448.03
2023-05-24T22:03:49.163Z,98451.13
2023-05-24T22:06:56.079Z,98463.22
2023-05-24T22:10:13.562Z,98462.22
2023-05-24T22:13:19.723Z,98465.75
2023-05-24T22:16:33.013Z,98459.75
2023-05-24T22:19:41.575Z,98458.28
2023-05-24T22:22:53.853Z,98462.22
2023-05-24T22:26:08.953Z,98463.78
2023-05-24T22:29:16.664Z,98469.19
2023-05-24T22:32:25.912Z,98479.50
2023-05-24T22:35:33.329Z,98474.91
2023-05-24T22:38:39.313Z,98470.41
2023-05-24T22:41:48.700Z,98472.78
2023-05-24T22:44:54.737Z,98473.34
2023-05-24T22:48:03.625Z,98473.63
2023-05-24T22:51:09.690Z,98473.06
2023-05-24T22:54:17.024Z,98480.28
2023-05-24T22:57:29.253Z,98475.09
2023-05-24T23:00:38.787Z,98472.75
2023-05-24T23:03:44.712Z,98474.16
2023-05-24T23:06:53.447Z,98477.06
2023-05-24T23:10:12.946Z,98475.94
2023-05-24T23:13:24.933Z,98485.63
2023-05-24T23:16:40.352Z,98488.88
2023-05-24T23:19:56.733Z,98493.41
2023-05-24T23:23:03.714Z,98486.28
2023-05-24T23:26:18.091Z,98486.38
2023-05-24T23:29:32.895Z,98490.78
2023-05-24T23:32:39.745Z,98486.31
2023-05-24T23:35:45.918Z,98490.53
2023-05-24T23:38:52.922Z,98490.34
2023-05-24T23:41:58.924Z,98483.34
2023-05-24T23:45:15.665Z,98494.13
2023-05-24T23:48:23.551Z,98495.69
2023-05-24T23:51:30.519Z,98494.50
2023-05-24T23:54:36.495Z,98502.25
2023-05-24T23:57:43.315Z,98494.69
